Time;durP1;ratioP1;P1;durP2;ratioP2;P2;SDS_P1;SDS_P2;PMS_P1;PMS_P2;Temp;Humidity;BMP_temperature;BMP_pressure;BME280_temperature;BME280_humidity;BME280_pressure;Samples;Min_cycle;Max_cycle;Signal;HPM_P1;HPM_P2
2022/12/19 00:00:45;;;;;;;15.90;8.35;;;13.80;44.90;;;;;;5060595;28;48066;-70
2022/12/19 00:03:14;;;;;;;14.05;7.32;;;13.80;44.90;;;;;;5053734;28;45447;-70
2022/12/19 00:05:41;;;;;;;15.63;8.10;;;13.80;44.90;;;;;;5047826;28;45464;-70
2022/12/19 00:08:16;;;;;;;14.02;7.47;;;13.80;45.00;;;;;;5050971;28;45504;-70
2022/12/19 00:10:42;;;;;;;15.68;7.95;;;13.80;45.10;;;;;;5054212;28;45511;-70
2022/12/19 00:13:09;;;;;;;15.52;8.40;;;13.80;45.00;;;;;;5061120;28;45283;-70
2022/12/19 00:15:37;;;;;;;14.10;7.75;;;13.80;45.10;;;;;;5062514;28;45368;-70
2022/12/19 00:18:04;;;;;;;17.17;8.52;;;13.80;45.10;;;;;;5062404;28;45372;-71
2022/12/19 00:20:32;;;;;;;14.05;7.72;;;13.80;45.20;;;;;;5061365;28;48355;-70
2022/12/19 00:22:59;;;;;;;14.18;7.95;;;13.70;45.20;;;;;;5039396;28;45328;-70
2022/12/19 00:25:25;;;;;;;13.77;7.70;;;13.80;45.30;;;;;;5041456;28;45335;-69
2022/12/19 00:27:52;;;;;;;13.32;7.63;;;13.80;45.30;;;;;;5050365;28;45324;-70
2022/12/19 00:30:19;;;;;;;13.98;7.68;;;13.80;46.60;;;;;;5061553;28;47069;-70
2022/12/19 00:32:46;;;;;;;14.90;7.93;;;13.80;45.30;;;;;;5059881;28;45441;-70
2022/12/19 00:35:13;;;;;;;12.88;7.93;;;13.90;45.40;;;;;;5061424;28;45415;-70
2022/12/19 00:37:41;;;;;;;14.15;7.28;;;13.90;45.40;;;;;;5059218;28;45439;-70
2022/12/19 00:40:09;;;;;;;12.80;7.15;;;13.90;45.50;;;;;;5064565;28;45504;-70
2022/12/19 00:42:36;;;;;;;12.75;8.05;;;13.90;45.60;;;;;;5062407;28;45513;-70
2022/12/19 00:45:03;;;;;;;16.17;8.15;;;13.90;45.60;;;;;;5065057;28;45463;-70
2022/12/19 00:47:30;;;;;;;12.93;7.03;;;13.80;45.60;;;;;;5062890;28;45654;-69
2022/12/19 00:49:56;;;;;;;13.13;7.88;;;13.80;45.60;;;;;;5064591;28;45361;-70
2022/12/19 00:52:23;;;;;;;13.73;7.43;;;13.80;45.60;;;;;;5063753;28;45345;-69
2022/12/19 00:54:51;;;;;;;12.63;7.45;;;13.80;45.80;;;;;;5062493;28;45424;-71
2022/12/19 00:57:18;;;;;;;14.63;7.78;;;13.80;45.80;;;;;;5055809;28;45454;-70
2022/12/19 00:59:45;;;;;;;15.77;7.93;;;13.80;45.90;;;;;;5061835;28;48768;-70
2022/12/19 01:02:11;;;;;;;14.93;7.72;;;13.80;45.80;;;;;;5059874;28;45387;-70
2022/12/19 01:04:38;;;;;;;15.27;8.18;;;13.80;45.90;;;;;;5060500;28;45456;-70
2022/12/19 01:07:07;;;;;;;11.50;6.68;;;13.80;45.90;;;;;;5053251;28;45398;-70
2022/12/19 01:09:35;;;;;;;13.32;7.47;;;13.80;45.90;;;;;;5060651;28;45462;-69
2022/12/19 01:14:49;;;;;;;13.82;7.85;;;13.90;46.00;;;;;;5052638;28;45344;-70
2022/12/19 01:17:16;;;;;;;13.70;7.28;;;13.90;46.00;;;;;;5057560;28;45550;-70
2022/12/19 01:19:43;;;;;;;13.98;6.97;;;13.90;46.10;;;;;;5062032;28;47505;-70
2022/12/19 01:22:10;;;;;;;12.15;7.28;;;13.90;46.30;;;;;;5056407;28;45704;-70
2022/12/19 01:24:36;;;;;;;12.50;7.05;;;13.90;46.20;;;;;;5063116;28;45346;-70
2022/12/19 01:27:05;;;;;;;16.65;8.32;;;13.80;46.10;;;;;;5056532;28;45439;-70
2022/12/19 01:29:32;;;;;;;13.75;7.47;;;13.90;46.30;;;;;;5056076;28;46621;-70
2022/12/19 01:31:59;;;;;;;14.02;6.70;;;13.90;46.20;;;;;;5043598;28;46012;-70
2022/12/19 01:34:26;;;;;;;11.40;6.55;;;13.80;46.30;;;;;;5061341;28;45434;-70
2022/12/19 01:36:53;;;;;;;12.93;7.20;;;13.80;46.20;;;;;;5056111;28;45490;-70
2022/12/19 01:39:19;;;;;;;13.60;7.47;;;13.80;46.30;;;;;;5062142;28;46618;-70
2022/12/19 01:41:47;;;;;;;14.75;7.90;;;13.80;47.60;;;;;;5063099;28;46160;-69
2022/12/19 01:44:15;;;;;;;15.48;7.68;;;13.80;46.50;;;;;;5062602;28;45375;-69
2022/12/19 01:46:45;;;;;;;14.15;7.22;;;13.90;46.50;;;;;;5057523;28;45452;-70
2022/12/19 01:49:16;;;;;;;14.15;7.70;;;13.90;46.40;;;;;;5063924;28;46955;-70
2022/12/19 01:51:46;;;;;;;13.35;7.65;;;13.90;46.30;;;;;;5063163;28;45300;-69
2022/12/19 01:54:17;;;;;;;11.45;6.55;;;13.90;46.20;;;;;;5059741;28;45321;-70
2022/12/19 01:56:48;;;;;;;13.82;7.82;;;13.90;46.20;;;;;;5056477;28;45436;-69
2022/12/19 01:59:20;;;;;;;12.10;7.47;;;14.00;46.30;;;;;;5062435;28;46406;-69
2022/12/19 02:01:47;;;;;;;11.60;6.88;;;13.90;46.30;;;;;;5062625;28;45337;-69
2022/12/19 02:04:14;;;;;;;12.65;6.70;;;13.90;46.40;;;;;;5059632;28;45387;-70
2022/12/19 02:06:42;;;;;;;12.57;6.50;;;13.90;46.50;;;;;;5054620;28;45561;-70
2022/12/19 02:09:10;;;;;;;14.25;7.07;;;13.90;46.60;;;;;;5057622;28;45601;-70
2022/12/19 02:11:38;;;;;;;12.10;7.03;;;13.90;46.50;;;;;;5061429;28;45342;-70
2022/12/19 02:14:04;;;;;;;12.75;7.13;;;13.90;46.60;;;;;;5061159;28;45463;-70
2022/12/19 02:16:41;;;;;;;11.88;6.43;;;13.90;46.60;;;;;;5059382;28;45261;-71
2022/12/19 02:19:39;;;;;;;11.65;6.47;;;13.90;46.70;;;;;;5054713;28;45476;-70
2022/12/19 02:22:14;;;;;;;11.57;6.68;;;13.90;46.80;;;;;;5062998;28;45612;-69
2022/12/19 02:25:20;;;;;;;11.52;6.85;;;13.80;46.80;;;;;;5050303;28;45354;-69
2022/12/19 02:28:25;;;;;;;9.85;5.93;;;13.90;47.00;;;;;;5043292;28;45563;-70
2022/12/19 02:31:03;;;;;;;12.32;6.43;;;13.90;46.70;;;;;;5062875;28;45499;-70
2022/12/19 02:33:38;;;;;;;13.05;7.38;;;14.00;46.70;;;;;;5054278;28;45459;-70
2022/12/19 02:36:12;;;;;;;12.98;7.03;;;14.00;46.80;;;;;;5062071;28;45441;-70
2022/12/19 02:38:45;;;;;;;13.48;7.43;;;14.00;46.60;;;;;;5055801;28;45524;-69
2022/12/19 02:41:18;;;;;;;14.20;7.18;;;14.00;46.80;;;;;;5049493;28;47237;-70
2022/12/19 02:43:49;;;;;;;12.07;6.65;;;14.00;46.90;;;;;;5056077;28;45358;-69
2022/12/19 02:46:18;;;;;;;11.18;6.80;;;14.00;47.00;;;;;;5057368;28;45328;-69
2022/12/19 02:48:45;;;;;;;9.52;5.88;;;14.00;46.90;;;;;;5049524;28;45253;-69
2022/12/19 02:51:12;;;;;;;11.95;6.88;;;14.00;46.90;;;;;;5063609;28;46762;-69
2022/12/19 02:53:39;;;;;;;10.90;6.78;;;13.90;46.90;;;;;;5059192;28;45530;-70
2022/12/19 02:56:34;;;;;;;11.45;6.68;;;13.90;46.80;;;;;;5060950;28;45313;-70
2022/12/19 02:59:31;;;;;;;10.57;6.05;;;13.90;47.00;;;;;;5052192;28;45459;-69
2022/12/19 03:02:08;;;;;;;12.35;7.13;;;13.90;47.00;;;;;;5054225;28;46296;-70
2022/12/19 03:04:42;;;;;;;13.20;7.07;;;13.90;47.00;;;;;;5060475;28;45554;-70
2022/12/19 03:07:18;;;;;;;11.98;6.22;;;14.00;48.30;;;;;;5061935;28;45440;-70
2022/12/19 03:09:52;;;;;;;11.35;6.38;;;14.00;47.10;;;;;;5052356;28;45313;-70
2022/12/19 03:12:31;;;;;;;10.32;6.13;;;14.00;47.10;;;;;;5054463;28;45485;-70
2022/12/19 03:14:59;;;;;;;11.45;6.20;;;14.00;47.00;;;;;;5058180;28;45362;-70
2022/12/19 03:17:28;;;;;;;9.43;5.85;;;14.00;47.10;;;;;;5062217;28;45310;-70
2022/12/19 03:19:55;;;;;;;12.13;6.97;;;14.00;47.00;;;;;;5056380;28;45504;-70
2022/12/19 03:22:22;;;;;;;12.73;6.82;;;14.00;47.10;;;;;;5051439;28;46042;-70
2022/12/19 03:24:49;;;;;;;11.82;6.30;;;14.00;47.30;;;;;;5058476;28;45271;-70
2022/12/19 03:27:22;;;;;;;10.23;5.85;;;14.00;47.30;;;;;;5060880;28;45372;-70
2022/12/19 03:29:53;;;;;;;10.95;6.03;;;14.00;47.40;;;;;;5059588;28;45332;-70
2022/12/19 03:32:22;;;;;;;11.32;6.40;;;14.00;47.50;;;;;;5057928;28;46189;-70
2022/12/19 03:34:55;;;;;;;11.32;5.82;;;14.00;47.50;;;;;;5060844;28;46036;-69
2022/12/19 03:37:25;;;;;;;10.40;6.00;;;14.00;47.60;;;;;;5060542;28;45418;-69
2022/12/19 03:39:56;;;;;;;11.38;6.30;;;13.90;47.70;;;;;;5055577;28;45505;-70
2022/12/19 03:45:11;;;;;;;10.82;6.38;;;13.90;47.70;;;;;;5057406;28;45267;-70
2022/12/19 03:47:41;;;;;;;12.00;6.80;;;14.00;47.70;;;;;;5053597;28;45322;-70
2022/12/19 03:50:11;;;;;;;12.73;6.80;;;14.00;47.80;;;;;;5061561;28;45351;-70
2022/12/19 03:52:46;;;;;;;12.70;6.50;;;14.00;47.70;;;;;;5059699;28;46364;-70
2022/12/19 03:55:17;;;;;;;13.77;7.22;;;14.00;47.60;;;;;;5058223;28;45456;-70
2022/12/19 03:57:51;;;;;;;10.48;6.22;;;14.00;47.70;;;;;;5060977;28;45225;-70
2022/12/19 04:00:18;;;;;;;12.13;6.35;;;14.00;47.90;;;;;;5059986;28;45452;-70
2022/12/19 04:02:51;;;;;;;12.90;6.35;;;14.00;47.90;;;;;;5058102;28;46393;-70
2022/12/19 04:05:22;;;;;;;11.35;6.30;;;14.00;47.90;;;;;;5059167;28;45474;-70
2022/12/19 04:07:50;;;;;;;12.10;6.25;;;14.00;49.20;;;;;;5053497;28;45316;-70
2022/12/19 04:10:21;;;;;;;12.13;6.53;;;14.00;48.20;;;;;;5058874;28;45528;-70
2022/12/19 04:12:53;;;;;;;10.27;6.07;;;14.00;48.30;;;;;;5057596;28;46578;-70
2022/12/19 04:15:29;;;;;;;11.75;6.30;;;14.00;48.30;;;;;;5062594;28;45325;-70
2022/12/19 04:17:59;;;;;;;12.32;7.00;;;13.90;47.70;;;;;;5062077;28;45285;-69
2022/12/19 04:20:29;;;;;;;13.90;7.25;;;13.90;47.10;;;;;;5045926;28;45459;-69
2022/12/19 04:23:00;;;;;;;11.48;6.18;;;13.90;46.90;;;;;;5044568;28;48212;-70
2022/12/19 04:25:30;;;;;;;11.68;6.70;;;13.90;46.90;;;;;;5054471;28;45419;-69
2022/12/19 04:28:00;;;;;;;13.52;7.45;;;13.90;46.70;;;;;;5055369;28;45360;-70
2022/12/19 04:30:27;;;;;;;14.75;7.90;;;13.90;46.60;;;;;;5051366;28;45394;-70
2022/12/19 04:32:55;;;;;;;13.55;7.40;;;13.90;46.50;;;;;;5048267;28;47332;-69
2022/12/19 04:35:21;;;;;;;11.55;6.63;;;13.90;46.30;;;;;;5056718;28;45344;-70
2022/12/19 04:37:51;;;;;;;13.77;7.13;;;13.90;46.20;;;;;;5051162;28;45364;-69
2022/12/19 04:40:18;;;;;;;14.65;7.10;;;13.90;46.20;;;;;;5053278;28;45433;-69
2022/12/19 04:42:44;;;;;;;14.95;7.95;;;13.90;46.20;;;;;;5053899;28;45420;-70
2022/12/19 04:45:11;;;;;;;13.63;7.65;;;13.90;46.20;;;;;;5061606;28;45490;-69
2022/12/19 04:47:38;;;;;;;13.18;7.30;;;13.90;46.20;;;;;;5056091;28;45438;-70
2022/12/19 04:50:06;;;;;;;16.92;7.93;;;13.90;46.20;;;;;;5061240;28;45393;-69
2022/12/19 04:52:32;;;;;;;12.23;7.00;;;13.90;46.10;;;;;;5058746;28;45403;-69
2022/12/19 04:55:00;;;;;;;14.50;7.75;;;13.90;46.10;;;;;;5061532;28;45364;-69
2022/12/19 04:57:29;;;;;;;11.48;7.15;;;13.90;46.20;;;;;;5056669;28;45383;-69
2022/12/19 04:59:56;;;;;;;13.18;7.30;;;13.90;46.20;;;;;;5058900;28;45292;-72
2022/12/19 05:02:23;;;;;;;13.13;6.30;;;13.90;46.20;;;;;;5059381;28;47736;-69
2022/12/19 05:04:50;;;;;;;13.70;7.68;;;13.80;46.10;;;;;;5055616;28;45488;-69
2022/12/19 05:07:20;;;;;;;12.02;6.85;;;13.80;46.00;;;;;;5061234;28;45370;-69
2022/12/19 05:09:47;;;;;;;14.52;7.10;;;13.90;46.20;;;;;;5056856;28;45539;-70
2022/12/19 05:12:15;;;;;;;13.70;7.70;;;13.90;46.30;;;;;;5048706;28;46620;-69
2022/12/19 05:14:42;;;;;;;13.25;7.30;;;13.90;46.20;;;;;;5059596;28;45415;-69
2022/12/19 05:17:09;;;;;;;13.15;7.28;;;13.90;46.10;;;;;;5060286;28;45428;-70
2022/12/19 05:19:36;;;;;;;11.23;6.20;;;13.90;45.90;;;;;;5055475;28;45650;-70
2022/12/19 05:22:03;;;;;;;11.80;7.20;;;13.90;48.20;;;;;;5054997;28;46585;-69
2022/12/19 05:24:29;;;;;;;13.50;7.55;;;13.90;48.20;;;;;;5058340;28;45847;-69
2022/12/19 05:26:56;;;;;;;12.82;7.35;;;13.90;48.10;;;;;;5057937;28;45455;-70
2022/12/19 05:29:24;;;;;;;13.40;7.50;;;13.80;47.10;;;;;;5060904;28;45609;-69
2022/12/19 05:31:51;;;;;;;13.23;7.32;;;13.80;47.00;;;;;;5060334;28;46622;-69
2022/12/19 05:34:18;;;;;;;13.13;7.50;;;13.80;48.10;;;;;;5061641;28;45375;-70
2022/12/19 05:36:45;;;;;;;11.43;7.03;;;13.80;48.10;;;;;;5053121;28;45316;-69
2022/12/19 05:39:12;;;;;;;13.50;7.68;;;13.80;46.80;;;;;;5056311;28;45363;-70
2022/12/19 05:41:38;;;;;;;12.77;7.07;;;13.70;46.60;;;;;;5057898;28;46324;-69
2022/12/19 05:44:05;;;;;;;12.02;6.93;;;13.70;46.60;;;;;;5063831;28;45432;-70
2022/12/19 05:46:33;;;;;;;12.02;7.28;;;13.70;46.50;;;;;;5056162;28;45322;-69
2022/12/19 05:49:00;;;;;;;11.93;6.93;;;13.70;46.40;;;;;;5053808;28;45621;-69
2022/12/19 05:51:27;;;;;;;13.57;7.40;;;13.70;46.40;;;;;;5058032;28;47907;-69
2022/12/19 05:53:54;;;;;;;11.55;7.13;;;13.80;46.30;;;;;;5053299;28;45365;-69
2022/12/19 05:56:23;;;;;;;12.48;7.38;;;13.80;46.20;;;;;;5054908;28;45492;-70
2022/12/19 05:58:50;;;;;;;12.38;7.72;;;13.80;46.20;;;;;;5062169;28;45311;-69
2022/12/19 06:01:19;;;;;;;12.90;6.82;;;13.80;46.20;;;;;;5054339;28;46691;-70
2022/12/19 06:03:47;;;;;;;12.50;7.57;;;13.90;46.40;;;;;;5051773;28;45512;-69
2022/12/19 06:06:18;;;;;;;12.32;6.97;;;13.80;46.50;;;;;;5058608;28;45433;-70
2022/12/19 06:08:45;;;;;;;11.75;6.82;;;13.80;46.40;;;;;;5058244;28;45566;-69
2022/12/19 06:11:13;;;;;;;13.85;7.35;;;13.90;46.50;;;;;;5053200;28;46408;-70
2022/12/19 06:13:41;;;;;;;13.07;6.78;;;13.90;46.30;;;;;;5063444;28;45691;-69
2022/12/19 06:16:11;;;;;;;13.27;7.32;;;13.90;46.30;;;;;;5052051;28;45376;-69
2022/12/19 06:18:38;;;;;;;11.60;6.88;;;13.90;46.30;;;;;;5055311;28;45280;-69
2022/12/19 06:21:10;;;;;;;11.52;6.95;;;14.00;46.40;;;;;;5041511;28;46637;-70
2022/12/19 06:23:37;;;;;;;11.38;6.55;;;14.00;46.40;;;;;;5038747;28;45320;-70
2022/12/19 06:26:06;;;;;;;10.45;7.03;;;14.00;46.30;;;;;;5069119;28;45318;-69
2022/12/19 06:28:33;;;;;;;14.07;6.90;;;14.00;46.30;;;;;;5076849;28;45558;-69
2022/12/19 06:31:02;;;;;;;12.85;6.93;;;14.00;46.30;;;;;;5084023;27;45381;-69
2022/12/19 06:33:30;;;;;;;10.77;7.53;;;14.00;46.40;;;;;;5083211;27;45367;-68
2022/12/19 06:36:01;;;;;;;11.63;6.68;;;14.00;46.60;;;;;;5059738;27;45363;-69
2022/12/19 06:38:29;;;;;;;11.55;7.13;;;14.00;46.80;;;;;;5062032;28;45390;-69
2022/12/19 06:43:41;;;;;;;11.23;6.43;;;13.90;46.60;;;;;;5039712;28;45276;-70
2022/12/19 06:46:08;;;;;;;11.98;7.00;;;13.90;46.60;;;;;;5043416;28;45234;-69
2022/12/19 06:48:35;;;;;;;11.73;5.97;;;13.90;46.80;;;;;;5043921;28;45450;-69
2022/12/19 06:51:01;;;;;;;12.88;6.72;;;13.90;46.80;;;;;;5042846;28;47502;-69
2022/12/19 06:53:30;;;;;;;11.40;6.60;;;13.90;46.90;;;;;;5042982;28;45415;-69
2022/12/19 06:55:58;;;;;;;12.60;6.57;;;13.90;46.80;;;;;;5042938;28;45325;-69
2022/12/19 06:58:26;;;;;;;10.18;5.97;;;13.90;46.90;;;;;;5043415;28;45521;-69
2022/12/19 07:00:54;;;;;;;8.82;5.70;;;13.90;46.80;;;;;;5042747;28;45398;-69
2022/12/19 07:03:25;;;;;;;9.05;5.85;;;13.90;46.70;;;;;;5042759;28;45309;-69
2022/12/19 07:05:52;;;;;;;11.05;5.68;;;14.00;46.80;;;;;;5043269;28;45298;-69
2022/12/19 07:08:19;;;;;;;10.45;6.00;;;14.00;46.90;;;;;;5042908;28;45343;-69
2022/12/19 07:10:47;;;;;;;12.52;6.85;;;14.00;46.80;;;;;;5043513;28;46629;-69
2022/12/19 07:13:14;;;;;;;10.77;6.35;;;14.00;46.70;;;;;;5042300;28;45474;-69
2022/12/19 07:15:41;;;;;;;10.52;6.32;;;14.00;46.80;;;;;;5043198;28;45371;-69
2022/12/19 07:18:09;;;;;;;9.60;5.70;;;14.00;46.80;;;;;;5043316;28;45488;-69
2022/12/19 07:20:38;;;;;;;11.38;6.57;;;14.00;46.90;;;;;;5042850;28;47096;-69
2022/12/19 07:23:06;;;;;;;10.73;6.55;;;14.00;47.00;;;;;;5040334;28;45364;-69
2022/12/19 07:25:33;;;;;;;9.65;6.03;;;14.00;47.10;;;;;;5042877;28;45375;-69
2022/12/19 07:28:01;;;;;;;12.80;6.13;;;14.00;47.10;;;;;;5057066;28;45419;-69
2022/12/19 07:30:28;;;;;;;9.60;5.80;;;14.00;47.40;;;;;;5071955;28;45257;-69
2022/12/19 07:32:55;;;;;;;11.20;5.70;;;14.00;47.40;;;;;;5064325;27;45312;-69
2022/12/19 07:35:23;;;;;;;11.23;6.03;;;13.90;47.50;;;;;;5063122;28;45380;-69
2022/12/19 07:37:50;;;;;;;11.32;6.50;;;13.90;47.40;;;;;;5061869;28;45537;-69
2022/12/19 07:40:17;;;;;;;10.70;5.95;;;13.90;47.60;;;;;;5062511;28;46398;-69
2022/12/19 07:42:44;;;;;;;10.20;5.97;;;13.90;47.60;;;;;;5059061;28;45313;-69
2022/12/19 07:45:12;;;;;;;11.13;5.72;;;13.90;47.70;;;;;;5042520;28;45379;-70
2022/12/19 07:47:39;;;;;;;9.65;5.78;;;13.90;47.70;;;;;;5042307;28;45451;-68
2022/12/19 07:50:06;;;;;;;9.60;5.60;;;13.90;47.70;;;;;;5061939;28;46603;-69
2022/12/19 07:52:33;;;;;;;10.43;6.15;;;13.90;47.60;;;;;;5061441;28;45419;-69
2022/12/19 07:55:00;;;;;;;9.20;5.90;;;14.00;47.60;;;;;;5062123;28;45309;-69
2022/12/19 07:57:26;;;;;;;7.82;5.05;;;14.00;47.30;;;;;;5063017;28;45241;-69
2022/12/19 07:59:53;;;;;;;11.45;6.25;;;14.00;47.40;;;;;;5058236;28;47626;-69
2022/12/19 08:02:21;;;;;;;7.40;5.05;;;14.00;48.70;;;;;;5042424;28;45403;-70
2022/12/19 08:04:49;;;;;;;7.40;4.50;;;14.10;48.00;;;;;;5042184;28;45367;-69
2022/12/19 08:07:16;;;;;;;8.00;5.07;;;14.10;51.80;;;;;;5044797;28;45532;-70
2022/12/19 08:09:43;;;;;;;9.25;5.35;;;14.10;51.10;;;;;;5061580;28;46669;-70
2022/12/19 08:12:10;;;;;;;9.77;5.60;;;14.10;50.10;;;;;;5061708;28;45356;-69
2022/12/19 08:14:37;;;;;;;8.60;5.13;;;14.00;49.30;;;;;;5061923;28;45381;-69
2022/12/19 08:17:04;;;;;;;8.90;5.35;;;14.00;48.60;;;;;;5057302;28;45296;-69
2022/12/19 08:19:32;;;;;;;10.20;5.60;;;14.00;48.30;;;;;;5056131;28;46056;-69
2022/12/19 08:21:59;;;;;;;8.30;5.28;;;13.90;48.20;;;;;;5060641;28;45348;-69
2022/12/19 08:24:26;;;;;;;9.40;5.75;;;14.00;48.30;;;;;;5060147;28;45351;-69
2022/12/19 08:26:52;;;;;;;9.68;5.25;;;14.00;48.30;;;;;;5061927;28;45463;-70
2022/12/19 08:29:19;;;;;;;11.38;6.30;;;13.90;48.20;;;;;;5061667;28;47173;-69
2022/12/19 08:31:46;;;;;;;8.68;5.20;;;14.00;48.30;;;;;;5045710;28;45462;-69
2022/12/19 08:34:13;;;;;;;10.45;6.18;;;13.90;48.20;;;;;;5049480;28;45454;-71
2022/12/19 08:36:41;;;;;;;9.57;5.50;;;13.90;48.20;;;;;;5060662;28;45554;-69
2022/12/19 08:39:08;;;;;;;10.02;5.68;;;14.00;48.30;;;;;;5054977;28;46638;-69
2022/12/19 08:41:35;;;;;;;9.68;5.63;;;13.90;48.20;;;;;;5041501;28;45441;-69
2022/12/19 08:44:02;;;;;;;9.20;5.35;;;14.00;48.30;;;;;;5054418;28;45438;-69
2022/12/19 08:46:29;;;;;;;11.90;5.03;;;14.00;49.50;;;;;;5062020;28;45494;-69
2022/12/19 08:48:56;;;;;;;8.25;5.20;;;14.00;48.30;;;;;;5061517;28;45322;-69
2022/12/19 08:51:24;;;;;;;9.45;5.53;;;14.00;48.30;;;;;;5054374;28;45387;-69
2022/12/19 08:53:52;;;;;;;9.05;5.68;;;14.00;49.50;;;;;;5040622;28;45467;-69
2022/12/19 08:56:21;;;;;;;9.52;5.68;;;14.10;49.60;;;;;;5041829;28;45549;-69
2022/12/19 08:58:50;;;;;;;8.82;5.07;;;14.10;48.40;;;;;;5045345;28;46588;-69
2022/12/19 09:01:18;;;;;;;10.45;5.65;;;14.10;48.40;;;;;;5062638;28;45397;-69
2022/12/19 09:03:46;;;;;;;8.48;4.95;;;14.10;48.40;;;;;;5064198;28;45379;-69
2022/12/19 09:06:14;;;;;;;7.80;5.10;;;14.00;48.30;;;;;;5065060;28;45465;-69
2022/12/19 09:08:42;;;;;;;11.40;5.57;;;14.00;48.30;;;;;;5054743;28;48378;-68
2022/12/19 09:11:12;;;;;;;9.50;5.32;;;14.00;48.30;;;;;;5045022;28;45284;-69
2022/12/19 09:13:41;;;;;;;10.02;5.72;;;14.00;48.30;;;;;;5063447;28;45287;-68
2022/12/19 09:16:11;;;;;;;11.73;5.80;;;14.00;48.30;;;;;;5065290;28;45319;-70
2022/12/19 09:18:39;;;;;;;9.43;5.03;;;14.00;48.30;;;;;;5064966;28;47044;-69
2022/12/19 09:21:06;;;;;;;10.15;5.72;;;14.00;48.30;;;;;;5056828;28;45301;-69
2022/12/19 09:23:34;;;;;;;11.35;6.80;;;14.00;48.30;;;;;;5061526;28;45388;-69
2022/12/19 09:26:04;;;;;;;11.18;5.03;;;14.00;48.30;;;;;;5063600;28;45364;-70
2022/12/19 09:28:32;;;;;;;9.57;5.72;;;14.00;48.30;;;;;;5064658;28;45412;-69
2022/12/19 09:31:01;;;;;;;8.27;5.30;;;14.00;48.30;;;;;;5064814;28;45443;-69
2022/12/19 09:33:29;;;;;;;9.55;5.05;;;14.00;48.30;;;;;;5063839;28;45344;-70
2022/12/19 09:35:56;;;;;;;9.27;5.47;;;14.10;48.40;;;;;;5064602;28;45466;-69
2022/12/19 09:38:25;;;;;;;9.07;5.00;;;14.10;48.40;;;;;;5063794;28;45376;-69
2022/12/19 09:41:02;;;;;;;13.38;5.85;;;14.10;48.40;;;;;;5044502;28;45411;-70
2022/12/19 09:43:45;;;;;;;9.70;5.53;;;14.10;48.40;;;;;;5047131;28;45308;-70
2022/12/19 09:46:17;;;;;;;9.32;5.93;;;14.10;48.40;;;;;;5044051;28;45257;-70
2022/12/19 09:48:46;;;;;;;9.10;5.40;;;14.20;48.50;;;;;;5043771;28;46219;-69
2022/12/19 09:51:22;;;;;;;9.15;5.57;;;14.20;48.50;;;;;;5044582;28;45458;-70
2022/12/19 09:53:59;;;;;;;10.45;5.38;;;14.10;48.40;;;;;;5043245;28;45290;-69
2022/12/19 09:56:29;;;;;;;9.40;5.72;;;14.10;48.40;;;;;;5045033;28;45277;-70
2022/12/19 09:59:03;;;;;;;7.68;5.22;;;14.10;48.40;;;;;;5062698;28;47374;-70
2022/12/19 10:01:36;;;;;;;10.07;5.40;;;14.10;48.40;;;;;;5063821;28;45982;-69
2022/12/19 10:04:09;;;;;;;8.90;5.28;;;14.10;48.90;;;;;;5063672;28;45324;-69
2022/12/19 10:06:36;;;;;;;11.27;6.35;;;14.10;49.30;;;;;;5063782;28;45421;-69
2022/12/19 10:09:03;;;;;;;11.48;5.72;;;14.10;49.30;;;;;;5063832;28;46326;-69
2022/12/19 10:11:43;;;;;;;9.88;5.65;;;14.10;49.20;;;;;;5063287;28;45405;-70
2022/12/19 10:14:26;;;;;;;9.52;5.45;;;14.10;49.20;;;;;;5063002;28;45307;-69
2022/12/19 10:17:02;;;;;;;9.00;5.32;;;14.10;49.10;;;;;;5052501;28;45387;-69
2022/12/19 10:19:38;;;;;;;9.98;5.50;;;14.10;49.20;;;;;;5063115;28;47091;-69
2022/12/19 10:22:17;;;;;;;8.63;5.13;;;14.10;49.20;;;;;;5063182;28;45332;-69
2022/12/19 10:25:15;;;;;;;10.45;5.45;;;14.20;49.20;;;;;;5055966;28;45443;-69
2022/12/19 10:27:49;;;;;;;9.07;4.82;;;14.20;49.20;;;;;;5061684;28;45541;-69
2022/12/19 10:30:19;;;;;;;10.65;5.53;;;14.20;49.30;;;;;;5060211;28;45538;-70
2022/12/19 10:32:58;;;;;;;8.73;4.80;;;14.20;49.40;;;;;;5060900;28;45399;-70
2022/12/19 10:35:32;;;;;;;9.38;5.75;;;14.20;50.60;;;;;;5059260;28;45419;-70
2022/12/19 10:38:13;;;;;;;10.18;5.63;;;14.20;49.60;;;;;;5064034;28;45503;-70
2022/12/19 10:40:45;;;;;;;7.88;5.10;;;14.30;49.70;;;;;;5061010;28;48451;-69
2022/12/19 10:43:18;;;;;;;9.05;5.50;;;14.30;49.60;;;;;;5063257;28;45439;-69
2022/12/19 10:45:51;;;;;;;10.48;5.82;;;14.30;49.60;;;;;;5062827;28;45447;-70
2022/12/19 10:48:20;;;;;;;10.98;5.72;;;14.30;49.60;;;;;;5063510;28;45438;-70
2022/12/19 10:50:47;;;;;;;9.02;5.07;;;14.30;49.60;;;;;;5062070;28;45380;-69
2022/12/19 10:53:15;;;;;;;10.98;5.22;;;14.30;49.60;;;;;;5061393;28;45458;-70
2022/12/19 10:55:45;;;;;;;9.10;5.13;;;14.30;49.70;;;;;;5063621;28;45306;-70
2022/12/19 10:58:21;;;;;;;8.35;5.07;;;14.30;49.70;;;;;;5063325;28;45434;-69
2022/12/19 11:01:05;;;;;;;11.23;5.43;;;14.30;49.60;;;;;;5061102;28;46157;-70
2022/12/19 11:03:33;;;;;;;9.18;5.75;;;14.30;49.70;;;;;;5063046;28;45273;-69
2022/12/19 11:06:02;;;;;;;8.82;4.85;;;14.30;50.90;;;;;;5063023;28;45534;-69
2022/12/19 11:08:31;;;;;;;5.85;3.65;;;14.30;49.60;;;;;;5046848;28;45565;-70
2022/12/19 11:11:11;;;;;;;9.45;5.45;;;14.30;53.60;;;;;;5054769;28;48858;-69
2022/12/19 11:13:43;;;;;;;7.60;4.80;;;14.30;53.20;;;;;;5062733;28;45362;-70
2022/12/19 11:16:14;;;;;;;8.43;5.35;;;14.30;51.90;;;;;;5062537;28;45410;-69
2022/12/19 11:18:43;;;;;;;8.77;5.47;;;14.30;51.50;;;;;;5063209;28;45517;-69
2022/12/19 11:21:17;;;;;;;7.43;5.25;;;14.30;51.50;;;;;;5061002;28;46634;-69
2022/12/19 11:23:50;;;;;;;10.95;5.10;;;14.30;51.20;;;;;;5058563;28;45288;-69
2022/12/19 11:26:36;;;;;;;10.15;5.80;;;14.30;51.10;;;;;;5048684;28;45418;-69
2022/12/19 11:29:16;;;;;;;8.43;4.90;;;14.30;50.80;;;;;;5062046;28;45405;-69
2022/12/19 11:31:46;;;;;;;9.88;5.63;;;14.30;50.80;;;;;;5062766;28;46783;-69
2022/12/19 11:34:16;;;;;;;11.05;5.40;;;14.30;50.80;;;;;;5061729;28;45474;-69
2022/12/19 11:36:48;;;;;;;8.75;5.28;;;14.30;50.80;;;;;;5059426;28;45193;-69
2022/12/19 11:39:21;;;;;;;10.60;5.53;;;14.30;50.90;;;;;;5063259;28;45343;-69
2022/12/19 11:41:56;;;;;;;10.13;5.60;;;14.20;50.70;;;;;;5058093;28;45329;-69
2022/12/19 11:44:29;;;;;;;9.27;5.45;;;14.20;50.70;;;;;;5062270;28;45332;-69
2022/12/19 11:47:04;;;;;;;9.27;5.13;;;14.20;50.90;;;;;;5061897;28;45642;-69
2022/12/19 11:49:36;;;;;;;7.97;4.80;;;14.10;50.80;;;;;;5062841;28;45504;-69
2022/12/19 11:52:10;;;;;;;8.98;5.38;;;14.10;50.90;;;;;;5058443;28;45349;-70
2022/12/19 11:54:48;;;;;;;8.20;4.85;;;14.10;50.80;;;;;;5060638;28;45245;-69
2022/12/19 11:57:14;;;;;;;8.60;5.22;;;14.10;50.70;;;;;;5062088;28;45270;-69
2022/12/19 11:59:41;;;;;;;9.80;5.90;;;14.20;50.70;;;;;;5054486;28;45477;-69
2022/12/19 12:02:56;;;;;;;8.77;4.88;;;14.20;50.60;;;;;;5061489;28;48134;-70
2022/12/19 12:05:41;;;;;;;9.55;5.55;;;14.20;50.50;;;;;;5015995;28;45467;-69
2022/12/19 12:08:47;;;;;;;10.23;5.95;;;14.20;50.60;;;;;;5047971;28;45251;-69
2022/12/19 12:11:24;;;;;;;8.52;5.55;;;14.20;50.70;;;;;;5062079;28;45486;-69
2022/12/19 12:14:09;;;;;;;11.05;5.85;;;14.20;50.80;;;;;;5061524;28;47965;-69
2022/12/19 12:16:44;;;;;;;9.80;5.40;;;14.30;50.60;;;;;;5044686;28;45388;-69
2022/12/19 12:19:22;;;;;;;9.10;5.57;;;14.30;50.50;;;;;;5058896;28;45391;-69
2022/12/19 12:21:57;;;;;;;11.15;5.47;;;14.30;50.80;;;;;;5062277;28;45593;-69
2022/12/19 12:24:39;;;;;;;12.00;5.82;;;14.30;51.00;;;;;;5060179;28;47260;-70
2022/12/19 12:27:21;;;;;;;8.27;5.22;;;14.30;51.10;;;;;;5062259;28;46054;-70
2022/12/19 12:29:58;;;;;;;9.23;5.78;;;14.20;51.00;;;;;;5061612;28;45363;-69
2022/12/19 12:32:43;;;;;;;11.85;6.10;;;14.20;51.10;;;;;;5054942;28;45509;-70
2022/12/19 12:35:25;;;;;;;10.35;5.40;;;14.20;51.00;;;;;;5051366;28;46115;-69
2022/12/19 12:38:03;;;;;;;8.10;5.40;;;14.20;51.10;;;;;;5065775;28;45376;-70
2022/12/19 12:40:50;;;;;;;9.77;5.47;;;14.20;51.10;;;;;;5042028;28;45254;-69
2022/12/19 12:43:34;;;;;;;9.73;5.57;;;14.20;51.10;;;;;;5045178;28;45272;-69
2022/12/19 12:46:04;;;;;;;9.82;5.30;;;14.20;51.00;;;;;;5044399;28;45349;-69
2022/12/19 12:48:37;;;;;;;10.63;5.43;;;14.20;51.00;;;;;;5047260;28;45305;-69
2022/12/19 12:51:07;;;;;;;9.75;5.57;;;14.20;51.00;;;;;;5045783;28;45387;-69
2022/12/19 12:53:37;;;;;;;9.70;5.65;;;14.20;50.90;;;;;;5048760;28;45472;-69
2022/12/19 12:56:08;;;;;;;9.35;5.47;;;14.20;50.80;;;;;;5065240;28;46299;-69
2022/12/19 12:58:59;;;;;;;10.07;5.60;;;14.20;50.70;;;;;;5064444;28;45355;-69
2022/12/19 13:01:34;;;;;;;9.65;5.07;;;14.30;50.60;;;;;;5064652;28;45600;-69
2022/12/19 13:04:05;;;;;;;9.20;5.10;;;14.30;50.70;;;;;;5064509;28;45626;-70
2022/12/19 13:06:35;;;;;;;8.35;4.90;;;14.30;50.80;;;;;;5063014;28;46322;-69